createdAt,value
2018-11-07T00:00:10.787Z,0
2018-11-07T00:00:51.348Z,0
2018-11-07T00:01:31.912Z,0
2018-11-07T00:02:12.455Z,0
2018-11-07T00:02:53.112Z,0
2018-11-07T00:03:33.580Z,0
2018-11-07T00:04:14.146Z,0
2018-11-07T00:04:54.726Z,0
2018-11-07T00:05:35.291Z,0
2018-11-07T00:06:15.862Z,0
2018-11-07T00:06:56.439Z,0
2018-11-07T00:07:37.009Z,0
2018-11-07T00:08:17.752Z,0
2018-11-07T00:08:58.145Z,0
2018-11-07T00:09:38.696Z,0
2018-11-07T00:10:19.264Z,0
2018-11-07T00:10:59.821Z,0
2018-11-07T00:11:40.381Z,0
2018-11-07T00:12:20.980Z,0
2018-11-07T00:13:01.537Z,0
2018-11-07T00:13:42.151Z,0
2018-11-07T00:14:22.715Z,0
2018-11-07T00:15:03.263Z,0
2018-11-07T00:15:43.840Z,0
2018-11-07T00:16:24.383Z,0
2018-11-07T00:17:04.956Z,0
2018-11-07T00:17:45.507Z,0
2018-11-07T00:18:26.065Z,0
2018-11-07T00:19:06.623Z,0
2018-11-07T00:19:47.179Z,0
2018-11-07T00:20:27.739Z,0
2018-11-07T00:21:08.316Z,0
2018-11-07T00:21:48.890Z,0
2018-11-07T00:22:29.449Z,0
2018-11-07T00:23:10.022Z,0
2018-11-07T00:23:50.574Z,0
2018-11-07T00:24:31.166Z,0
2018-11-07T00:25:11.739Z,0
2018-11-07T00:25:52.301Z,0
2018-11-07T00:26:32.995Z,0
2018-11-07T00:27:13.425Z,0
2018-11-07T00:27:54.005Z,0
2018-11-07T00:28:34.577Z,0
2018-11-07T00:29:15.150Z,0
2018-11-07T00:29:55.745Z,0
2018-11-07T00:30:36.309Z,0
2018-11-07T00:31:16.903Z,0
2018-11-07T00:31:57.456Z,0
2018-11-07T00:32:38.043Z,0
2018-11-07T00:33:18.603Z,0
2018-11-07T00:33:59.183Z,0
2018-11-07T00:34:39.746Z,0
2018-11-07T00:35:20.318Z,0
2018-11-07T00:36:00.894Z,0
2018-11-07T00:36:41.446Z,0
2018-11-07T00:37:22.002Z,0
2018-11-07T00:38:02.562Z,0
2018-11-07T00:38:43.127Z,0
2018-11-07T00:39:23.697Z,0
2018-11-07T00:40:04.235Z,0
2018-11-07T00:40:44.794Z,0
2018-11-07T00:41:25.351Z,0
2018-11-07T00:42:05.940Z,0
2018-11-07T00:42:46.494Z,0
2018-11-07T00:43:27.077Z,0
2018-11-07T00:44:07.668Z,0
2018-11-07T00:44:48.246Z,0
2018-11-07T00:45:28.828Z,0
2018-11-07T00:46:09.380Z,0
2018-11-07T00:46:49.935Z,0
2018-11-07T00:47:30.510Z,0
2018-11-07T00:48:11.082Z,0
2018-11-07T00:48:51.640Z,0
2018-11-07T00:49:32.213Z,0
2018-11-07T00:50:12.778Z,0
2018-11-07T00:50:53.338Z,0
2018-11-07T00:51:33.887Z,0
2018-11-07T00:52:14.443Z,0
2018-11-07T00:52:55.067Z,0
2018-11-07T00:53:35.613Z,0
2018-11-07T00:54:16.191Z,0
2018-11-07T00:54:56.752Z,0
2018-11-07T00:55:37.318Z,0
2018-11-07T00:56:17.898Z,0
2018-11-07T00:56:58.451Z,0
2018-11-07T00:57:39.003Z,0
2018-11-07T00:58:19.586Z,0
2018-11-07T00:59:00.177Z,0
2018-11-07T00:59:40.710Z,0
2018-11-07T01:00:21.273Z,0
2018-11-07T01:01:01.850Z,0
2018-11-07T01:01:42.421Z,0
2018-11-07T01:02:22.988Z,0
2018-11-07T01:03:03.548Z,0
2018-11-07T01:03:44.126Z,0
2018-11-07T01:04:24.676Z,0
2018-11-07T01:05:05.243Z,0
2018-11-07T01:05:45.857Z,0
2018-11-07T01:06:26.403Z,0
2018-11-07T01:07:06.970Z,0
2018-11-07T01:07:47.532Z,0
2018-11-07T01:08:28.086Z,0
2018-11-07T01:09:08.639Z,0
2018-11-07T01:09:49.208Z,0
2018-11-07T01:10:29.773Z,0
2018-11-07T01:11:10.367Z,0
2018-11-07T01:11:50.913Z,0
2018-11-07T01:12:31.473Z,0
2018-11-07T01:13:12.049Z,0
2018-11-07T01:13:52.610Z,0
2018-11-07T01:14:33.187Z,0
2018-11-07T01:15:13.755Z,0
2018-11-07T01:15:54.323Z,0
2018-11-07T01:16:34.934Z,0
2018-11-07T01:17:15.435Z,0
2018-11-07T01:17:56.005Z,0
2018-11-07T01:18:36.552Z,0
2018-11-07T01:19:17.115Z,0
2018-11-07T01:19:57.679Z,0
2018-11-07T01:20:38.236Z,0
2018-11-07T01:21:18.813Z,0
2018-11-07T01:21:59.369Z,0
2018-11-07T01:22:39.924Z,0
2018-11-07T01:23:20.492Z,0
2018-11-07T01:24:01.040Z,0
2018-11-07T01:24:41.593Z,0
2018-11-07T01:25:22.191Z,0
2018-11-07T01:26:02.751Z,0
2018-11-07T01:26:43.324Z,0
2018-11-07T01:27:23.900Z,0
2018-11-07T01:28:04.459Z,0
2018-11-07T01:28:45.012Z,0
2018-11-07T01:29:25.576Z,0
2018-11-07T01:30:06.134Z,0
2018-11-07T01:30:46.702Z,0
2018-11-07T01:31:27.270Z,0
2018-11-07T01:32:07.821Z,0
2018-11-07T01:32:48.394Z,0
2018-11-07T01:33:28.973Z,0
2018-11-07T01:34:09.522Z,0
2018-11-07T01:34:50.107Z,0
2018-11-07T01:35:30.667Z,0
2018-11-07T01:36:11.229Z,0
2018-11-07T01:36:51.790Z,0
2018-11-07T01:37:32.347Z,0
2018-11-07T01:38:12.932Z,0
2018-11-07T01:38:53.488Z,0
2018-11-07T01:39:34.052Z,0
2018-11-07T01:40:14.651Z,0
2018-11-07T01:40:55.209Z,0
2018-11-07T01:41:35.793Z,0
2018-11-07T01:42:16.374Z,0
2018-11-07T01:42:56.950Z,0
2018-11-07T01:43:37.512Z,0
2018-11-07T01:44:18.081Z,0
2018-11-07T01:44:58.658Z,0
2018-11-07T01:45:39.230Z,0
2018-11-07T01:46:19.802Z,0
2018-11-07T01:47:00.364Z,0
2018-11-07T01:47:40.937Z,0
2018-11-07T01:48:21.496Z,0
2018-11-07T01:49:02.094Z,0
2018-11-07T01:49:42.648Z,0
2018-11-07T01:50:23.200Z,0
2018-11-07T01:51:03.784Z,0
2018-11-07T01:51:44.415Z,0
2018-11-07T01:52:25.738Z,0
2018-11-07T01:53:06.290Z,0
2018-11-07T01:53:46.879Z,0
2018-11-07T01:54:27.446Z,0
2018-11-07T01:55:08.022Z,0
2018-11-07T01:55:48.581Z,0
2018-11-07T01:56:29.141Z,0
2018-11-07T01:57:09.739Z,0
2018-11-07T01:57:50.297Z,0
2018-11-07T01:58:30.861Z,0
2018-11-07T01:59:11.425Z,0
2018-11-07T01:59:51.994Z,0
2018-11-07T02:00:32.583Z,0
2018-11-07T02:01:13.161Z,0
2018-11-07T02:01:53.744Z,0
2018-11-07T02:02:34.299Z,0
2018-11-07T02:03:14.854Z,0
2018-11-07T02:03:55.404Z,0
2018-11-07T02:04:35.977Z,0
2018-11-07T02:05:16.564Z,0
2018-11-07T02:05:57.110Z,0
2018-11-07T02:06:37.669Z,0
2018-11-07T02:07:18.221Z,0
2018-11-07T02:07:58.794Z,0
2018-11-07T02:08:39.363Z,0
2018-11-07T02:09:19.937Z,0
2018-11-07T02:10:00.521Z,0
2018-11-07T02:10:41.090Z,0
2018-11-07T02:11:21.671Z,0
2018-11-07T02:12:02.240Z,0
2018-11-07T02:12:42.802Z,0
2018-11-07T02:13:23.360Z,0
2018-11-07T02:14:03.922Z,0
2018-11-07T02:14:44.548Z,0
2018-11-07T02:15:25.116Z,0
2018-11-07T02:16:05.688Z,0
2018-11-07T02:16:46.278Z,0
2018-11-07T02:17:26.827Z,0
2018-11-07T02:18:07.431Z,0
2018-11-07T02:18:47.961Z,0
2018-11-07T02:19:28.531Z,0
2018-11-07T02:20:09.107Z,0
2018-11-07T02:20:49.664Z,0
2018-11-07T02:21:30.274Z,0
2018-11-07T02:22:10.787Z,0
2018-11-07T02:22:51.426Z,0
2018-11-07T02:23:31.991Z,0
2018-11-07T02:24:12.573Z,0
2018-11-07T02:24:53.114Z,0
2018-11-07T02:25:33.670Z,0
2018-11-07T02:26:14.241Z,0
2018-11-07T02:26:54.805Z,0
2018-11-07T02:27:35.386Z,0
2018-11-07T02:28:15.956Z,0
2018-11-07T02:28:56.524Z,0
2018-11-07T02:29:37.089Z,0
2018-11-07T02:30:17.665Z,0
2018-11-07T02:30:58.218Z,0
2018-11-07T02:31:38.854Z,0
2018-11-07T02:32:19.508Z,0
2018-11-07T02:33:00.104Z,0
2018-11-07T02:33:40.665Z,0
2018-11-07T02:34:21.226Z,0
2018-11-07T02:35:01.777Z,0
2018-11-07T02:35:42.355Z,0
2018-11-07T02:36:22.927Z,0
2018-11-07T02:37:03.575Z,0
2018-11-07T02:37:44.108Z,0
2018-11-07T02:38:24.701Z,0
2018-11-07T02:39:05.264Z,0
2018-11-07T02:39:45.845Z,0
2018-11-07T02:40:26.396Z,0
2018-11-07T02:41:06.980Z,0
2018-11-07T02:41:47.621Z,0
2018-11-07T02:42:28.178Z,0
2018-11-07T02:43:08.736Z,0
2018-11-07T02:43:49.297Z,0
2018-11-07T02:44:29.862Z,0
2018-11-07T02:45:10.415Z,0
2018-11-07T02:45:50.998Z,0
2018-11-07T02:46:31.548Z,0
2018-11-07T02:47:12.106Z,0
2018-11-07T02:47:52.678Z,0
2018-11-07T02:48:33.232Z,0
2018-11-07T02:49:13.798Z,0
2018-11-07T02:49:54.365Z,0
2018-11-07T02:50:34.919Z,0
2018-11-07T02:51:15.547Z,0
2018-11-07T02:51:56.115Z,0
2018-11-07T02:52:36.681Z,0
2018-11-07T02:53:17.269Z,0
2018-11-07T02:53:57.801Z,0
2018-11-07T02:54:38.394Z,0
2018-11-07T02:55:18.934Z,0
2018-11-07T02:55:59.488Z,0
2018-11-07T02:56:40.050Z,0
2018-11-07T02:57:20.620Z,0
2018-11-07T02:58:01.189Z,0
2018-11-07T02:58:41.791Z,0
2018-11-07T02:59:22.330Z,0
2018-11-07T03:00:02.892Z,0
2018-11-07T03:00:43.440Z,0
2018-11-07T03:01:24.116Z,0
2018-11-07T03:02:04.573Z,0
2018-11-07T03:02:45.139Z,0
2018-11-07T03:03:25.716Z,0
2018-11-07T03:04:06.278Z,0
2018-11-07T03:04:46.834Z,0
2018-11-07T03:05:27.388Z,0
2018-11-07T03:06:07.950Z,0
2018-11-07T03:06:48.524Z,0
2018-11-07T03:07:29.109Z,0
2018-11-07T03:08:09.689Z,0
2018-11-07T03:08:50.259Z,0
2018-11-07T03:09:30.811Z,0
2018-11-07T03:10:11.516Z,0
2018-11-07T03:10:51.911Z,0
2018-11-07T03:11:32.469Z,0
2018-11-07T03:12:13.058Z,0
2018-11-07T03:12:53.604Z,0
2018-11-07T03:13:34.196Z,0
2018-11-07T03:14:14.769Z,0
2018-11-07T03:14:55.321Z,0
2018-11-07T03:15:35.871Z,0
2018-11-07T03:16:16.463Z,0
2018-11-07T03:16:57.010Z,0
2018-11-07T03:17:37.573Z,0
2018-11-07T03:18:18.121Z,0
2018-11-07T03:18:58.689Z,0
2018-11-07T03:19:39.258Z,0
2018-11-07T03:20:19.825Z,0
2018-11-07T03:21:00.403Z,0
2018-11-07T03:21:40.970Z,0
2018-11-07T03:22:21.538Z,0
2018-11-07T03:23:02.125Z,0
2018-11-07T03:23:42.679Z,0
2018-11-07T03:24:23.321Z,0
2018-11-07T03:25:03.874Z,0
2018-11-07T03:25:44.428Z,0
2018-11-07T03:26:24.982Z,0
2018-11-07T03:27:05.560Z,0
2018-11-07T03:27:46.172Z,0
2018-11-07T03:28:26.706Z,0
2018-11-07T03:29:07.271Z,0
2018-11-07T03:29:47.826Z,0
2018-11-07T03:30:28.389Z,0
2018-11-07T03:31:09.013Z,0
2018-11-07T03:31:49.563Z,0
2018-11-07T03:32:30.208Z,0
2018-11-07T03:33:10.770Z,0
2018-11-07T03:33:51.335Z,0
2018-11-07T03:34:31.896Z,0
2018-11-07T03:35:12.475Z,0
2018-11-07T03:35:53.037Z,0
2018-11-07T03:36:33.678Z,0
2018-11-07T03:37:14.255Z,0
2018-11-07T03:37:54.830Z,0
2018-11-07T03:38:35.400Z,0
2018-11-07T03:39:15.957Z,0
2018-11-07T03:39:56.602Z,0
2018-11-07T03:40:37.071Z,0
2018-11-07T03:41:17.625Z,0
2018-11-07T03:41:58.185Z,0
2018-11-07T03:42:38.740Z,0
2018-11-07T03:43:19.325Z,0
2018-11-07T03:43:59.879Z,0
2018-11-07T03:44:40.451Z,0
2018-11-07T03:45:21.003Z,0
2018-11-07T03:46:01.568Z,0
2018-11-07T03:46:42.155Z,0
2018-11-07T03:47:22.762Z,0
2018-11-07T03:48:03.313Z,0
2018-11-07T03:48:43.865Z,0
2018-11-07T03:49:24.449Z,0
2018-11-07T03:50:05.012Z,0
2018-11-07T03:50:45.596Z,0
2018-11-07T03:51:26.155Z,0
2018-11-07T03:52:06.707Z,0
2018-11-07T03:52:47.316Z,0
2018-11-07T03:53:27.877Z,0
2018-11-07T03:54:08.428Z,0
2018-11-07T03:54:49.029Z,0
2018-11-07T03:55:29.681Z,0
2018-11-07T03:56:10.280Z,0
2018-11-07T03:56:50.826Z,0
2018-11-07T03:57:31.387Z,0
2018-11-07T03:58:11.934Z,0
2018-11-07T03:58:52.506Z,0
2018-11-07T03:59:33.138Z,0
2018-11-07T04:00:13.698Z,0
2018-11-07T04:00:54.286Z,0
2018-11-07T04:01:34.910Z,0
2018-11-07T04:02:15.498Z,0
2018-11-07T04:02:56.094Z,0
2018-11-07T04:03:36.665Z,0
2018-11-07T04:04:17.270Z,0
2018-11-07T04:04:57.838Z,0
2018-11-07T04:05:38.392Z,0
2018-11-07T04:06:18.954Z,0
2018-11-07T04:06:59.544Z,0
2018-11-07T04:07:40.106Z,0
2018-11-07T04:08:20.670Z,0
2018-11-07T04:09:01.279Z,0
2018-11-07T04:09:41.830Z,0
2018-11-07T04:10:22.448Z,0
2018-11-07T04:11:03.016Z,0
2018-11-07T04:11:43.604Z,0
2018-11-07T04:12:24.160Z,0
2018-11-07T04:13:04.702Z,0
2018-11-07T04:13:45.277Z,0
2018-11-07T04:14:25.837Z,0
2018-11-07T04:15:06.409Z,0
2018-11-07T04:15:46.992Z,0
2018-11-07T04:16:27.539Z,0
2018-11-07T04:17:08.093Z,0
2018-11-07T04:17:48.658Z,0
2018-11-07T04:18:29.219Z,0
2018-11-07T04:19:09.807Z,0
2018-11-07T04:19:50.371Z,0
2018-11-07T04:20:30.922Z,0
2018-11-07T04:21:11.494Z,0
2018-11-07T04:21:52.076Z,0
2018-11-07T04:22:32.640Z,0
2018-11-07T04:23:13.216Z,0
2018-11-07T04:23:53.752Z,0
2018-11-07T04:24:34.377Z,0
2018-11-07T04:25:14.929Z,0
2018-11-07T04:25:55.490Z,0
2018-11-07T04:26:36.063Z,0
2018-11-07T04:27:16.646Z,0
2018-11-07T04:27:57.216Z,0
2018-11-07T04:28:37.782Z,0
2018-11-07T04:29:18.402Z,0
2018-11-07T04:29:58.964Z,0
2018-11-07T04:30:39.525Z,0
2018-11-07T04:31:20.096Z,0
2018-11-07T04:32:00.651Z,0
2018-11-07T04:32:41.250Z,0
2018-11-07T04:33:21.799Z,0
2018-11-07T04:34:02.367Z,0
2018-11-07T04:34:42.927Z,0
2018-11-07T04:35:23.488Z,0
2018-11-07T04:36:04.046Z,0
2018-11-07T04:36:44.601Z,0
2018-11-07T04:37:25.157Z,0
2018-11-07T04:38:05.710Z,0
2018-11-07T04:38:46.281Z,0
2018-11-07T04:39:26.827Z,0
2018-11-07T04:40:07.403Z,0
2018-11-07T04:40:47.978Z,0
2018-11-07T04:41:28.525Z,0
2018-11-07T04:42:09.083Z,0
2018-11-07T04:42:49.658Z,0
2018-11-07T04:43:30.223Z,0
2018-11-07T04:44:10.788Z,0
2018-11-07T04:44:51.359Z,0
2018-11-07T04:45:31.926Z,0
2018-11-07T04:46:12.492Z,0
2018-11-07T04:46:53.048Z,0
2018-11-07T04:47:33.609Z,0
2018-11-07T04:48:14.166Z,0
2018-11-07T04:48:54.726Z,0
2018-11-07T04:49:35.316Z,0
2018-11-07T04:50:15.891Z,0
2018-11-07T04:50:56.455Z,0
2018-11-07T04:51:37.017Z,0
2018-11-07T04:52:17.584Z,0
2018-11-07T04:52:58.135Z,0
2018-11-07T04:53:38.671Z,0
2018-11-07T04:54:19.236Z,0
2018-11-07T04:54:59.796Z,0
2018-11-07T04:55:40.358Z,0
2018-11-07T04:56:20.921Z,0
2018-11-07T04:57:01.486Z,0
2018-11-07T04:57:42.051Z,0
2018-11-07T04:58:22.595Z,0
2018-11-07T04:59:03.165Z,0
2018-11-07T04:59:43.701Z,0
2018-11-07T05:00:24.348Z,0
2018-11-07T05:01:04.849Z,0
2018-11-07T05:01:45.417Z,0
2018-11-07T05:02:25.972Z,0
2018-11-07T05:03:06.549Z,0
2018-11-07T05:03:47.122Z,0
2018-11-07T05:04:27.678Z,0
2018-11-07T05:05:08.264Z,0
2018-11-07T05:05:48.830Z,0
2018-11-07T05:06:29.412Z,0
2018-11-07T05:07:09.979Z,0
2018-11-07T05:07:50.577Z,0
2018-11-07T05:08:31.149Z,0
2018-11-07T05:09:11.649Z,0
2018-11-07T05:09:52.198Z,0
2018-11-07T05:10:32.785Z,0
2018-11-07T05:11:13.346Z,0
2018-11-07T05:11:53.906Z,0
2018-11-07T05:12:34.488Z,0
2018-11-07T05:13:15.041Z,0
2018-11-07T05:13:55.590Z,0
2018-11-07T05:14:36.300Z,0
2018-11-07T05:15:16.872Z,0
2018-11-07T05:15:57.459Z,0
2018-11-07T05:16:38.133Z,0
2018-11-07T05:17:18.742Z,0
2018-11-07T05:17:59.373Z,0
2018-11-07T05:18:39.930Z,0
2018-11-07T05:19:20.491Z,0
2018-11-07T05:20:01.053Z,0
2018-11-07T05:20:41.654Z,0
2018-11-07T05:21:22.220Z,0
2018-11-07T05:22:02.787Z,0
2018-11-07T05:22:43.346Z,0
2018-11-07T05:23:23.921Z,0
2018-11-07T05:24:04.508Z,0
2018-11-07T05:24:45.068Z,0
2018-11-07T05:25:25.645Z,0
2018-11-07T05:26:06.312Z,0
2018-11-07T05:26:46.755Z,0
2018-11-07T05:27:27.341Z,0
2018-11-07T05:28:07.887Z,0
2018-11-07T05:28:48.448Z,0
2018-11-07T05:29:29.016Z,0
2018-11-07T05:30:09.597Z,0
2018-11-07T05:30:50.171Z,0
2018-11-07T05:31:30.776Z,0
2018-11-07T05:32:11.360Z,0
2018-11-07T05:32:51.913Z,0
2018-11-07T05:33:32.490Z,0
2018-11-07T05:34:13.051Z,0
2018-11-07T05:34:53.620Z,0
2018-11-07T05:35:34.183Z,0
2018-11-07T05:36:14.729Z,0
2018-11-07T05:36:55.317Z,0
2018-11-07T05:37:35.862Z,0
2018-11-07T05:38:16.414Z,0
2018-11-07T05:38:56.962Z,0
2018-11-07T05:39:37.579Z,0
2018-11-07T05:40:18.130Z,0
2018-11-07T05:40:58.749Z,0
2018-11-07T05:41:39.249Z,0
2018-11-07T05:42:19.832Z,0
2018-11-07T05:43:00.405Z,0
2018-11-07T05:43:41.363Z,0
2018-11-07T05:44:21.927Z,0
2018-11-07T05:45:02.544Z,0
2018-11-07T05:45:43.104Z,0
2018-11-07T05:46:23.659Z,0
2018-11-07T05:47:04.237Z,0
2018-11-07T05:47:44.800Z,0
2018-11-07T05:48:25.363Z,0
2018-11-07T05:49:06.002Z,0
2018-11-07T05:49:46.485Z,0
2018-11-07T05:50:27.049Z,0
2018-11-07T05:51:07.620Z,0
2018-11-07T05:51:48.179Z,0
2018-11-07T05:52:28.729Z,0
2018-11-07T05:53:09.296Z,0
2018-11-07T05:53:49.875Z,0
2018-11-07T05:54:30.470Z,0
2018-11-07T05:55:11.026Z,0
2018-11-07T05:55:51.580Z,0
2018-11-07T05:56:32.128Z,0
2018-11-07T05:57:12.672Z,0
2018-11-07T05:57:53.232Z,0
2018-11-07T05:58:33.812Z,0
2018-11-07T05:59:14.372Z,0
2018-11-07T05:59:54.984Z,0
2018-11-07T06:00:35.547Z,0
2018-11-07T06:01:16.113Z,0
2018-11-07T06:01:56.701Z,0
2018-11-07T06:02:37.254Z,0
2018-11-07T06:03:17.804Z,0
2018-11-07T06:03:58.382Z,0
2018-11-07T06:04:38.942Z,0
2018-11-07T06:05:19.542Z,0
2018-11-07T06:06:00.092Z,0
2018-11-07T06:06:40.641Z,0
2018-11-07T06:07:21.217Z,0
2018-11-07T06:08:01.761Z,0
2018-11-07T06:08:42.318Z,0
2018-11-07T06:09:22.874Z,0
2018-11-07T06:10:03.438Z,0
2018-11-07T06:10:43.987Z,0
2018-11-07T06:11:24.550Z,0
2018-11-07T06:12:05.140Z,0
2018-11-07T06:12:45.732Z,0
2018-11-07T06:13:26.302Z,0
2018-11-07T06:14:06.882Z,5
2018-11-07T06:14:47.423Z,5
2018-11-07T06:15:27.984Z,5
2018-11-07T06:16:08.625Z,5
2018-11-07T06:16:49.156Z,5
2018-11-07T06:17:29.737Z,5
2018-11-07T06:18:10.297Z,5
2018-11-07T06:18:50.854Z,5
2018-11-07T06:19:31.433Z,5
2018-11-07T06:20:11.991Z,5
2018-11-07T06:20:52.584Z,5
2018-11-07T06:21:33.243Z,5
2018-11-07T06:22:13.804Z,5
2018-11-07T06:22:54.421Z,5
2018-11-07T06:23:34.941Z,5
2018-11-07T06:24:15.617Z,10
2018-11-07T06:24:56.279Z,10
2018-11-07T06:25:36.926Z,10
2018-11-07T06:26:17.521Z,10
2018-11-07T06:26:58.103Z,10
2018-11-07T06:27:38.663Z,10
2018-11-07T06:28:19.220Z,10
2018-11-07T06:28:59.880Z,10
2018-11-07T06:29:40.456Z,10
2018-11-07T06:30:21.029Z,10
2018-11-07T06:31:01.588Z,10
2018-11-07T06:31:42.140Z,10
2018-11-07T06:32:22.733Z,15
2018-11-07T06:33:03.302Z,15
2018-11-07T06:33:43.880Z,15
2018-11-07T06:34:24.507Z,15
2018-11-07T06:35:05.081Z,15
2018-11-07T06:35:45.693Z,15
2018-11-07T06:36:26.398Z,15
2018-11-07T06:37:06.960Z,15
2018-11-07T06:37:47.622Z,15
2018-11-07T06:38:28.193Z,20
2018-11-07T06:39:08.793Z,20
2018-11-07T06:39:49.363Z,20
2018-11-07T06:40:30.192Z,20
2018-11-07T06:41:10.854Z,20
2018-11-07T06:41:51.469Z,20
2018-11-07T06:42:32.046Z,20
2018-11-07T06:43:13.072Z,20
2018-11-07T06:43:53.868Z,20
2018-11-07T06:44:34.490Z,20
2018-11-07T06:45:15.424Z,25
2018-11-07T06:45:55.787Z,25
2018-11-07T06:46:36.344Z,25
2018-11-07T06:47:16.950Z,25
2018-11-07T06:47:57.628Z,25
2018-11-07T06:48:38.189Z,25
2018-11-07T06:49:18.752Z,25
2018-11-07T06:49:59.315Z,25
2018-11-07T06:50:40.064Z,20
2018-11-07T06:51:20.749Z,25
2018-11-07T06:52:01.335Z,25
2018-11-07T06:52:41.906Z,25
2018-11-07T06:53:22.650Z,30
2018-11-07T06:54:03.209Z,30
2018-11-07T06:54:43.774Z,30
2018-11-07T06:55:24.342Z,30
2018-11-07T06:56:04.903Z,30
2018-11-07T06:56:45.477Z,30
2018-11-07T06:57:26.104Z,30
2018-11-07T06:58:06.656Z,30
2018-11-07T06:58:47.402Z,35
2018-11-07T06:59:27.965Z,35
2018-11-07T07:00:08.528Z,35
2018-11-07T07:00:49.092Z,35
2018-11-07T07:01:30.005Z,35
2018-11-07T07:02:10.372Z,35
2018-11-07T07:02:50.965Z,35
2018-11-07T07:03:31.564Z,40
2018-11-07T07:04:12.075Z,40
2018-11-07T07:04:52.628Z,40
2018-11-07T07:05:33.180Z,40
2018-11-07T07:06:13.739Z,40
2018-11-07T07:06:54.328Z,40
2018-11-07T07:07:34.917Z,40
2018-11-07T07:08:16.022Z,40
2018-11-07T07:08:56.612Z,40
2018-11-07T07:09:37.207Z,45
2018-11-07T07:10:18.616Z,45
2018-11-07T07:10:59.307Z,45
2018-11-07T07:11:39.912Z,45
2018-11-07T07:12:20.664Z,45
2018-11-07T07:13:01.334Z,45
2018-11-07T07:13:41.938Z,45
2018-11-07T07:14:22.501Z,45
2018-11-07T07:15:03.078Z,50
2018-11-07T07:15:44.689Z,50
2018-11-07T07:16:25.433Z,50
2018-11-07T07:17:06.057Z,50
2018-11-07T07:17:48.016Z,50
2018-11-07T07:18:29.406Z,50
2018-11-07T07:19:10.057Z,50
2018-11-07T07:19:50.628Z,50
2018-11-07T07:20:31.186Z,55
2018-11-07T07:21:11.777Z,55
2018-11-07T07:21:52.319Z,55
2018-11-07T07:22:32.871Z,55
2018-11-07T07:23:13.433Z,55
2018-11-07T07:23:53.997Z,55
2018-11-07T07:24:34.552Z,55
2018-11-07T07:25:15.119Z,55
2018-11-07T07:25:55.697Z,55
2018-11-07T07:26:36.256Z,60
2018-11-07T07:27:16.828Z,60
2018-11-07T07:27:57.417Z,60
2018-11-07T07:28:38.580Z,60
2018-11-07T07:29:19.226Z,60
2018-11-07T07:29:59.896Z,60
2018-11-07T07:30:40.381Z,60
2018-11-07T07:31:21.054Z,60
2018-11-07T07:32:01.868Z,60
2018-11-07T07:32:42.444Z,65
2018-11-07T07:33:23.149Z,65
2018-11-07T07:34:03.735Z,65
2018-11-07T07:34:44.301Z,65
2018-11-07T07:35:24.870Z,65
2018-11-07T07:36:05.419Z,65
2018-11-07T07:36:47.132Z,65
2018-11-07T07:37:27.828Z,65
2018-11-07T07:38:08.493Z,65
2018-11-07T07:38:49.393Z,70
2018-11-07T07:39:30.072Z,70
2018-11-07T07:40:11.120Z,70
2018-11-07T07:40:51.642Z,70
2018-11-07T07:41:32.543Z,70
2018-11-07T07:42:13.476Z,70
2018-11-07T07:42:54.049Z,70
2018-11-07T07:43:34.622Z,70
2018-11-07T07:44:15.164Z,70
2018-11-07T07:44:55.753Z,75
2018-11-07T07:45:36.408Z,75
2018-11-07T07:46:16.970Z,75
2018-11-07T07:46:57.532Z,75
2018-11-07T07:47:38.165Z,75
2018-11-07T07:48:18.723Z,75
2018-11-07T07:48:59.263Z,75
2018-11-07T07:49:39.817Z,75
2018-11-07T07:50:20.386Z,75
2018-11-07T07:51:01.064Z,80
2018-11-07T07:51:41.634Z,80
2018-11-07T07:52:22.184Z,80
2018-11-07T07:53:03.114Z,80
2018-11-07T07:53:43.666Z,80
2018-11-07T07:54:24.227Z,80
2018-11-07T07:55:04.780Z,80
2018-11-07T07:55:45.355Z,80
2018-11-07T07:56:26.051Z,80
2018-11-07T07:57:06.751Z,80
2018-11-07T07:57:47.495Z,85
2018-11-07T07:58:28.030Z,85
2018-11-07T07:59:08.610Z,85
2018-11-07T07:59:49.177Z,85
2018-11-07T08:00:29.744Z,85
2018-11-07T08:01:10.417Z,90
2018-11-07T08:01:50.980Z,85
2018-11-07T08:02:31.529Z,90
2018-11-07T08:03:12.082Z,90
2018-11-07T08:03:52.633Z,100
2018-11-07T08:04:33.218Z,120
2018-11-07T08:05:13.783Z,205
2018-11-07T08:05:54.349Z,340
2018-11-07T08:06:34.916Z,500
2018-11-07T08:07:15.474Z,615
2018-11-07T08:07:56.068Z,640
2018-11-07T08:08:36.621Z,610
2018-11-07T08:09:17.192Z,560
2018-11-07T08:09:57.776Z,525
2018-11-07T08:10:38.325Z,530
2018-11-07T08:11:18.884Z,565
2018-11-07T08:11:59.443Z,665
2018-11-07T08:12:39.996Z,675
2018-11-07T08:13:20.669Z,635
2018-11-07T08:14:01.282Z,515
2018-11-07T08:14:41.701Z,380
2018-11-07T08:15:22.253Z,285
2018-11-07T08:16:02.814Z,285
2018-11-07T08:16:43.380Z,360
2018-11-07T08:17:23.992Z,490
2018-11-07T08:18:04.553Z,610
2018-11-07T08:18:45.164Z,680
2018-11-07T08:19:25.731Z,725
2018-11-07T08:20:06.308Z,795
2018-11-07T08:20:46.886Z,830
2018-11-07T08:21:27.511Z,820
2018-11-07T08:22:07.999Z,815
2018-11-07T08:22:48.549Z,775
2018-11-07T08:23:29.139Z,700
2018-11-07T08:24:09.743Z,610
2018-11-07T08:24:50.331Z,620
2018-11-07T08:25:31.204Z,660
2018-11-07T08:26:11.780Z,725
2018-11-07T08:26:52.371Z,805
2018-11-07T08:27:32.915Z,805
2018-11-07T08:28:13.895Z,775
2018-11-07T08:28:54.461Z,785
2018-11-07T08:29:35.189Z,795
2018-11-07T08:30:16.001Z,790
2018-11-07T08:30:56.618Z,820
2018-11-07T08:31:37.172Z,890
2018-11-07T08:32:17.803Z,845
2018-11-07T08:32:58.387Z,745
2018-11-07T08:33:38.943Z,640
2018-11-07T08:34:19.538Z,630
2018-11-07T08:35:00.308Z,680
2018-11-07T08:35:41.016Z,725
2018-11-07T08:36:21.594Z,665
2018-11-07T08:37:02.160Z,515
2018-11-07T08:37:42.728Z,355
2018-11-07T08:38:23.296Z,280
2018-11-07T08:39:03.858Z,280
2018-11-07T08:39:44.465Z,325
2018-11-07T08:40:24.998Z,440
2018-11-07T08:41:05.610Z,580
2018-11-07T08:41:46.138Z,575
2018-11-07T08:42:26.767Z,545
2018-11-07T08:43:07.409Z,515
2018-11-07T08:43:47.963Z,460
2018-11-07T08:44:28.516Z,470
2018-11-07T08:45:09.090Z,450
2018-11-07T08:45:49.633Z,505
2018-11-07T08:46:30.225Z,560
2018-11-07T08:47:10.777Z,680
2018-11-07T08:47:51.352Z,735
2018-11-07T08:48:31.911Z,760
2018-11-07T08:49:12.480Z,755
2018-11-07T08:49:53.042Z,745
2018-11-07T08:50:33.600Z,740
2018-11-07T08:51:14.145Z,585
2018-11-07T08:51:54.695Z,455
2018-11-07T08:52:35.247Z,460
2018-11-07T08:53:15.812Z,425
2018-11-07T08:53:56.376Z,325
2018-11-07T08:54:36.944Z,245
2018-11-07T08:55:17.647Z,205
2018-11-07T08:55:58.216Z,200
2018-11-07T08:56:38.827Z,250
2018-11-07T08:57:19.384Z,385
2018-11-07T08:57:59.937Z,495
2018-11-07T08:58:40.497Z,455
2018-11-07T08:59:21.072Z,395
2018-11-07T09:00:01.642Z,410
2018-11-07T09:00:42.225Z,465
2018-11-07T09:01:22.909Z,465
2018-11-07T09:02:03.377Z,455
2018-11-07T09:02:43.935Z,455
2018-11-07T09:03:24.480Z,365
2018-11-07T09:04:05.033Z,285
2018-11-07T09:04:45.599Z,240
2018-11-07T09:05:26.174Z,215
2018-11-07T09:06:06.751Z,195
2018-11-07T09:06:47.324Z,195
2018-11-07T09:07:27.863Z,195
2018-11-07T09:08:08.414Z,195
2018-11-07T09:08:49.031Z,190
2018-11-07T09:09:29.597Z,200
2018-11-07T09:10:10.171Z,205
2018-11-07T09:10:50.729Z,210
2018-11-07T09:11:31.294Z,200
2018-11-07T09:12:11.945Z,190
2018-11-07T09:12:52.421Z,185
2018-11-07T09:13:32.983Z,180
2018-11-07T09:14:13.549Z,185
2018-11-07T09:14:54.115Z,175
2018-11-07T09:15:34.753Z,170
2018-11-07T09:16:15.302Z,170
2018-11-07T09:16:55.866Z,170
2018-11-07T09:17:36.434Z,170
2018-11-07T09:18:17.045Z,165
2018-11-07T09:18:57.619Z,160
2018-11-07T09:19:38.187Z,165
2018-11-07T09:20:18.734Z,155
2018-11-07T09:20:59.294Z,150
2018-11-07T09:21:39.891Z,145
2018-11-07T09:22:20.439Z,145
2018-11-07T09:23:00.997Z,150
2018-11-07T09:23:41.565Z,145
2018-11-07T09:24:22.179Z,140
2018-11-07T09:25:02.701Z,140
2018-11-07T09:25:43.249Z,140
2018-11-07T09:26:23.824Z,140
2018-11-07T09:27:04.390Z,140
2018-11-07T09:27:44.953Z,140
2018-11-07T09:28:25.522Z,140
2018-11-07T09:29:06.110Z,135
2018-11-07T09:29:46.647Z,135
2018-11-07T09:30:27.207Z,140
2018-11-07T09:31:07.810Z,135
2018-11-07T09:31:48.406Z,135
2018-11-07T09:32:28.962Z,130
2018-11-07T09:33:09.508Z,135
2018-11-07T09:33:50.054Z,130
2018-11-07T09:34:30.605Z,125
2018-11-07T09:35:11.154Z,125
2018-11-07T09:35:51.719Z,125
2018-11-07T09:36:32.287Z,125
2018-11-07T09:37:12.808Z,125
2018-11-07T09:37:53.359Z,125
2018-11-07T09:38:33.930Z,120
2018-11-07T09:39:14.483Z,120
2018-11-07T09:39:55.047Z,125
2018-11-07T09:40:35.593Z,125
2018-11-07T09:41:16.158Z,120
2018-11-07T09:41:56.713Z,120
2018-11-07T09:42:37.305Z,120
2018-11-07T09:43:17.869Z,125
2018-11-07T09:43:58.418Z,125
2018-11-07T09:44:38.975Z,120
2018-11-07T09:45:19.509Z,120
2018-11-07T09:46:00.109Z,120
2018-11-07T09:46:40.655Z,120
2018-11-07T09:47:21.236Z,120
2018-11-07T09:48:01.857Z,115
2018-11-07T09:48:42.370Z,115